createdAt,value
2023-03-20T00:00:10.881Z,95797.00
2023-03-20T00:04:13.811Z,95808.00
2023-03-20T00:08:18.191Z,95804.00
2023-03-20T00:12:25.814Z,95803.00
2023-03-20T00:16:32.739Z,95806.00
2023-03-20T00:20:35.813Z,95800.00
2023-03-20T00:24:40.472Z,95809.00
2023-03-20T00:28:44.921Z,95797.00
2023-03-20T00:32:48.198Z,95807.00
2023-03-20T00:36:51.159Z,95803.00
2023-03-20T00:40:55.348Z,95799.00
2023-03-20T00:44:59.617Z,95804.00
2023-03-20T00:49:03.375Z,95810.00
2023-03-20T00:53:07.635Z,95807.00
2023-03-20T00:57:17.825Z,95799.00
2023-03-20T01:01:20.670Z,95801.00
2023-03-20T01:05:23.577Z,95795.00
2023-03-20T01:09:29.947Z,95791.00
2023-03-20T01:13:34.483Z,95794.00
2023-03-20T01:17:37.312Z,95790.00
2023-03-20T01:21:40.169Z,95796.00
2023-03-20T01:25:43.620Z,95800.00
2023-03-20T01:29:48.170Z,95789.00
2023-03-20T01:33:51.494Z,95790.00
2023-03-20T01:37:54.794Z,95803.00
2023-03-20T01:41:57.690Z,95790.00
2023-03-20T01:46:15.409Z,95799.00
2023-03-20T01:50:36.725Z,95786.00
2023-03-20T01:54:48.071Z,95799.00
2023-03-20T01:58:54.591Z,95799.00
2023-03-20T02:02:59.127Z,95793.00
2023-03-20T02:07:33.017Z,95781.00
2023-03-20T02:11:46.000Z,95781.00
2023-03-20T02:16:02.491Z,95783.00
2023-03-20T02:20:34.841Z,95785.00
2023-03-20T02:25:03.358Z,95782.00
2023-03-20T02:29:48.119Z,95786.00
2023-03-20T02:34:12.786Z,95787.00
2023-03-20T02:38:41.536Z,95793.00
2023-03-20T02:42:51.876Z,95785.00
2023-03-20T02:47:02.035Z,95781.00
2023-03-20T02:51:13.411Z,95772.00
2023-03-20T02:55:21.414Z,95776.00
2023-03-20T02:59:31.650Z,95780.00
2023-03-20T03:03:39.166Z,95777.00
2023-03-20T03:07:44.567Z,95786.00
2023-03-20T03:11:52.791Z,95801.00
2023-03-20T03:16:03.052Z,95784.00
2023-03-20T03:20:10.469Z,95784.00
2023-03-20T03:24:39.999Z,95784.00
2023-03-20T03:28:51.095Z,95793.00
2023-03-20T03:33:08.183Z,95799.00
2023-03-20T03:37:20.736Z,95801.00
2023-03-20T03:41:27.389Z,95812.00
2023-03-20T03:45:34.281Z,95804.00
2023-03-20T03:49:40.709Z,95811.00
2023-03-20T03:53:49.397Z,95815.00
2023-03-20T03:57:57.921Z,95822.00
2023-03-20T04:02:04.480Z,95823.00
2023-03-20T04:06:09.986Z,95829.00
2023-03-20T04:10:13.154Z,95830.00
2023-03-20T04:14:16.460Z,95830.00
2023-03-20T04:18:21.089Z,95835.00
2023-03-20T04:22:24.783Z,95835.00
2023-03-20T04:26:28.039Z,95839.00
2023-03-20T04:30:32.225Z,95839.00
2023-03-20T04:34:55.277Z,95848.00
2023-03-20T04:39:04.617Z,95843.00
2023-03-20T04:43:07.966Z,95846.00
2023-03-20T04:47:11.346Z,95849.00
2023-03-20T04:51:19.617Z,95847.00
2023-03-20T04:55:26.906Z,95858.00
2023-03-20T04:59:30.750Z,95861.00
2023-03-20T05:03:33.694Z,95857.00
2023-03-20T05:07:38.241Z,95865.00
2023-03-20T05:11:44.957Z,95866.00
2023-03-20T05:16:14.795Z,95871.00
2023-03-20T05:20:41.318Z,95867.00
2023-03-20T05:25:11.506Z,95874.00
2023-03-20T05:29:46.295Z,95882.00
2023-03-20T05:33:58.333Z,95879.00
2023-03-20T05:38:12.280Z,95882.00
2023-03-20T05:42:31.254Z,95882.00
2023-03-20T05:46:52.437Z,95891.00
2023-03-20T05:51:03.930Z,95904.00
2023-03-20T05:55:29.953Z,95896.00
2023-03-20T05:59:50.579Z,95903.00
2023-03-20T06:04:13.379Z,95907.00
2023-03-20T06:08:54.353Z,95908.00
2023-03-20T06:12:58.724Z,95911.00
2023-03-20T06:17:03.716Z,95908.00
2023-03-20T06:21:07.526Z,95908.00
2023-03-20T06:25:11.400Z,95920.00
2023-03-20T06:29:17.991Z,95928.00
2023-03-20T06:33:22.879Z,95929.00
2023-03-20T06:37:36.267Z,95929.00
2023-03-20T06:41:44.625Z,95920.00
2023-03-20T06:45:48.384Z,95923.00
2023-03-20T06:50:09.064Z,95916.00
2023-03-20T06:54:12.228Z,95924.00
2023-03-20T06:58:15.125Z,95927.00
2023-03-20T07:02:18.250Z,95929.00
2023-03-20T07:06:22.964Z,95931.00
2023-03-20T07:10:27.331Z,95939.00
2023-03-20T07:14:30.342Z,95935.00
2023-03-20T07:18:37.904Z,95947.00
2023-03-20T07:22:42.780Z,95954.00
2023-03-20T07:26:52.948Z,95961.00
2023-03-20T07:30:57.357Z,95961.00
2023-03-20T07:35:01.910Z,95970.00
2023-03-20T07:39:06.952Z,95973.00
2023-03-20T07:43:11.628Z,95962.00
2023-03-20T07:47:43.862Z,95975.00
2023-03-20T07:51:46.836Z,95965.00
2023-03-20T07:55:51.405Z,95979.00
2023-03-20T07:59:54.228Z,95978.00
2023-03-20T08:03:57.392Z,95977.00
2023-03-20T08:08:00.421Z,95978.00
2023-03-20T08:12:05.061Z,95985.00
2023-03-20T08:16:08.585Z,95986.00
2023-03-20T08:20:13.064Z,95970.00
2023-03-20T08:24:15.979Z,95965.00
2023-03-20T08:28:20.282Z,95973.00
2023-03-20T08:32:23.066Z,95972.00
2023-03-20T08:36:26.421Z,95963.00
2023-03-20T08:40:30.064Z,95976.00
2023-03-20T08:44:34.495Z,95980.00
2023-03-20T08:48:37.379Z,95981.00
2023-03-20T08:52:43.864Z,95976.00
2023-03-20T08:56:47.031Z,95978.00
2023-03-20T09:00:51.301Z,95978.00
2023-03-20T09:04:54.215Z,95985.00
2023-03-20T09:08:57.146Z,95986.00
2023-03-20T09:12:59.954Z,95992.00
2023-03-20T09:17:04.182Z,95995.00
2023-03-20T09:21:07.663Z,95999.00
2023-03-20T09:25:10.765Z,95998.00
2023-03-20T09:29:13.608Z,96011.00
2023-03-20T09:33:18.784Z,96005.00
2023-03-20T09:37:21.886Z,96007.00
2023-03-20T09:41:28.360Z,96012.00
2023-03-20T09:45:43.148Z,96001.00
2023-03-20T09:49:57.886Z,96007.00
2023-03-20T09:54:05.263Z,95999.00
2023-03-20T09:58:16.158Z,95998.00
2023-03-20T10:02:24.754Z,95995.00
2023-03-20T10:06:29.314Z,95985.00
2023-03-20T10:10:40.729Z,95994.00
2023-03-20T10:14:52.821Z,95989.00
2023-03-20T10:19:06.990Z,95987.00
2023-03-20T10:23:21.935Z,95985.00
2023-03-20T10:27:28.409Z,95988.00
2023-03-20T10:31:41.222Z,95983.00
2023-03-20T10:35:51.183Z,95978.00
2023-03-20T10:40:05.794Z,95980.00
2023-03-20T10:44:15.942Z,95978.00
2023-03-20T10:48:27.378Z,95960.00
2023-03-20T10:52:33.819Z,95956.00
2023-03-20T10:56:43.599Z,95955.00
2023-03-20T11:00:47.086Z,95960.00
2023-03-20T11:04:49.945Z,95953.00
2023-03-20T11:08:54.231Z,95948.00
2023-03-20T11:12:58.410Z,95946.00
2023-03-20T11:17:03.920Z,95946.00
2023-03-20T11:21:14.935Z,95951.00
2023-03-20T11:25:26.004Z,95942.00
2023-03-20T11:29:34.976Z,95949.00
2023-03-20T11:33:39.871Z,95944.00
2023-03-20T11:37:46.049Z,95955.00
2023-03-20T11:41:52.934Z,95952.00
2023-03-20T11:45:59.301Z,95952.00
2023-03-20T11:50:05.604Z,95952.00
2023-03-20T11:54:15.849Z,95944.00
2023-03-20T11:58:18.836Z,95945.00
2023-03-20T12:02:25.960Z,95950.00
2023-03-20T12:06:42.412Z,95958.00
2023-03-20T12:10:51.755Z,95955.00
2023-03-20T12:14:59.533Z,95956.00
2023-03-20T12:19:10.716Z,95954.00
2023-03-20T12:23:27.063Z,95953.00
2023-03-20T12:27:34.834Z,95949.00
2023-03-20T12:31:42.965Z,95950.00
2023-03-20T12:35:50.884Z,95933.00
2023-03-20T12:39:56.480Z,95934.00
2023-03-20T12:44:25.898Z,95931.00
2023-03-20T12:48:44.240Z,95920.00
2023-03-20T12:52:56.689Z,95928.00
2023-03-20T12:57:08.426Z,95932.00
2023-03-20T13:01:19.294Z,95928.00
2023-03-20T13:05:32.581Z,95927.00
2023-03-20T13:10:07.261Z,95922.00
2023-03-20T13:14:17.871Z,95931.00
2023-03-20T13:18:25.140Z,95931.00
2023-03-20T13:22:36.311Z,95926.00
2023-03-20T13:26:46.017Z,95928.00
2023-03-20T13:30:56.413Z,95910.00
2023-03-20T13:35:23.369Z,95909.00
2023-03-20T13:39:31.973Z,95912.00
2023-03-20T13:43:40.893Z,95918.00
2023-03-20T13:47:47.756Z,95914.00
2023-03-20T13:51:56.501Z,95916.00
2023-03-20T13:56:12.050Z,95916.00
2023-03-20T14:00:27.424Z,95910.00
2023-03-20T14:04:31.843Z,95911.00
2023-03-20T14:08:36.799Z,95904.00
2023-03-20T14:12:39.864Z,95892.00
2023-03-20T14:16:44.338Z,95904.00
2023-03-20T14:20:55.157Z,95889.00
2023-03-20T14:25:00.663Z,95893.00
2023-03-20T14:29:21.145Z,95884.00
2023-03-20T14:33:32.415Z,95882.00
2023-03-20T14:37:39.943Z,95883.00
2023-03-20T14:42:03.362Z,95883.00
2023-03-20T14:46:09.615Z,95886.00
2023-03-20T14:50:19.068Z,95885.00
2023-03-20T14:54:28.123Z,95885.00
2023-03-20T14:58:46.345Z,95883.00
2023-03-20T15:02:52.155Z,95884.00
2023-03-20T15:06:59.597Z,95875.00
2023-03-20T15:11:08.717Z,95869.00
2023-03-20T15:15:25.548Z,95863.00
2023-03-20T15:19:28.861Z,95866.00
2023-03-20T15:23:34.994Z,95867.00
2023-03-20T15:27:37.949Z,95867.00
2023-03-20T15:31:42.024Z,95860.00
2023-03-20T15:35:44.999Z,95864.00
2023-03-20T15:39:51.638Z,95863.00
2023-03-20T15:43:54.944Z,95858.00
2023-03-20T15:48:01.993Z,95856.00
2023-03-20T15:52:08.817Z,95859.00
2023-03-20T15:56:18.753Z,95856.00
2023-03-20T16:00:28.063Z,95851.00
2023-03-20T16:04:31.060Z,95854.00
2023-03-20T16:08:35.797Z,95857.00
2023-03-20T16:12:40.404Z,95850.00
2023-03-20T16:16:44.415Z,95838.00
2023-03-20T16:20:52.448Z,95834.00
2023-03-20T16:24:58.261Z,95838.00
2023-03-20T16:29:03.108Z,95821.00
2023-03-20T16:33:10.433Z,95822.00
2023-03-20T16:37:25.261Z,95825.00
2023-03-20T16:41:31.916Z,95832.00
2023-03-20T16:45:37.008Z,95837.00
2023-03-20T16:49:51.477Z,95848.00
2023-03-20T16:53:57.442Z,95848.00
2023-03-20T16:58:04.333Z,95854.00
2023-03-20T17:02:12.867Z,95860.00
2023-03-20T17:06:39.719Z,95868.00
2023-03-20T17:10:46.114Z,95859.00
2023-03-20T17:14:48.936Z,95867.00
2023-03-20T17:19:02.017Z,95871.00
2023-03-20T17:23:05.155Z,95869.00
2023-03-20T17:27:10.299Z,95866.00
2023-03-20T17:31:14.738Z,95870.00
2023-03-20T17:35:19.096Z,95864.00
2023-03-20T17:39:22.473Z,95863.00
2023-03-20T17:43:25.353Z,95866.00
2023-03-20T17:47:29.499Z,95875.00
2023-03-20T17:51:34.695Z,95864.00
2023-03-20T17:55:37.487Z,95872.00
2023-03-20T17:59:40.307Z,95863.00
2023-03-20T18:03:43.465Z,95867.00
2023-03-20T18:07:47.853Z,95865.00
2023-03-20T18:11:50.697Z,95868.00
2023-03-20T18:15:55.697Z,95856.00
2023-03-20T18:19:58.557Z,95862.00
2023-03-20T18:24:02.731Z,95854.00
2023-03-20T18:28:07.792Z,95862.00
2023-03-20T18:32:10.628Z,95858.00
2023-03-20T18:36:16.347Z,95865.00
2023-03-20T18:40:22.522Z,95864.00
2023-03-20T18:44:25.366Z,95870.00
2023-03-20T18:48:30.557Z,95870.00
2023-03-20T18:52:33.378Z,95874.00
2023-03-20T18:56:37.842Z,95871.00
2023-03-20T19:00:41.706Z,95880.00
2023-03-20T19:04:44.539Z,95880.00
2023-03-20T19:08:48.333Z,95881.00
2023-03-20T19:12:53.167Z,95885.00
2023-03-20T19:16:56.116Z,95892.00
2023-03-20T19:20:59.167Z,95876.00
2023-03-20T19:25:01.954Z,95879.00
2023-03-20T19:29:09.056Z,95883.00
2023-03-20T19:33:12.275Z,95887.00
2023-03-20T19:37:15.076Z,95879.00
2023-03-20T19:41:19.888Z,95889.00
2023-03-20T19:45:24.923Z,95887.00
2023-03-20T19:49:31.119Z,95880.00
2023-03-20T19:53:35.338Z,95885.00
2023-03-20T19:57:38.104Z,95881.00
2023-03-20T20:01:42.380Z,95883.00
2023-03-20T20:05:45.679Z,95881.00
2023-03-20T20:09:48.458Z,95880.00
2023-03-20T20:14:05.713Z,95878.00
2023-03-20T20:18:11.100Z,95872.00
2023-03-20T20:22:25.003Z,95882.00
2023-03-20T20:26:31.253Z,95876.00
2023-03-20T20:30:38.486Z,95879.00
2023-03-20T20:39:06.728Z,95875.00
2023-03-20T20:43:30.191Z,95873.00
2023-03-20T20:47:35.639Z,95881.00
2023-03-20T20:51:39.696Z,95878.00
2023-03-20T20:55:42.600Z,95883.00
2023-03-20T20:59:45.519Z,95878.00
2023-03-20T21:03:48.330Z,95873.00
2023-03-20T21:07:52.638Z,95879.00
2023-03-20T21:11:55.466Z,95874.00
2023-03-20T21:15:58.814Z,95878.00
2023-03-20T21:20:01.785Z,95864.00
2023-03-20T21:24:06.909Z,95879.00
2023-03-20T21:28:10.669Z,95877.00
2023-03-20T21:32:14.482Z,95872.00
2023-03-20T21:36:17.600Z,95876.00
2023-03-20T21:40:21.977Z,95872.00
2023-03-20T21:45:08.874Z,95863.00
2023-03-20T21:49:43.060Z,95867.00
2023-03-20T21:54:09.637Z,95868.00
2023-03-20T21:58:22.790Z,95866.00
2023-03-20T22:02:10.650Z,95874.00
2023-03-20T22:11:38.589Z,95873.00
2023-03-20T22:24:39.456Z,95855.00
2023-03-20T22:28:56.673Z,95869.00
2023-03-20T22:38:00.393Z,95870.00
2023-03-20T22:42:18.479Z,95858.00
2023-03-20T22:46:05.537Z,95871.00
2023-03-20T22:50:12.494Z,95865.00
2023-03-20T22:54:15.282Z,95860.00
2023-03-20T22:58:18.087Z,95850.00
2023-03-20T23:02:20.881Z,95852.00
2023-03-20T23:06:27.290Z,95845.00
2023-03-20T23:10:30.180Z,95853.00
2023-03-20T23:14:44.771Z,95852.00
2023-03-20T23:18:48.420Z,95844.00
2023-03-20T23:22:52.595Z,95837.00
2023-03-20T23:26:55.376Z,95834.00
2023-03-20T23:31:10.352Z,95833.00
2023-03-20T23:35:13.644Z,95836.00
2023-03-20T23:39:17.933Z,95829.00
2023-03-20T23:43:21.381Z,95829.00
2023-03-20T23:47:27.621Z,95825.00
2023-03-20T23:51:32.811Z,95823.00
2023-03-20T23:55:37.527Z,95821.00
2023-03-20T23:59:40.515Z,95820.00
